Time;durP1;ratioP1;P1;durP2;ratioP2;P2;SDS_P1;SDS_P2;PMS_P1;PMS_P2;Temp;Humidity;BMP_temperature;BMP_pressure;BME280_temperature;BME280_humidity;BME280_pressure;Samples;Min_cycle;Max_cycle;Signal;HPM_P1;HPM_P2
2023/12/20 00:01:08;;;;;;;19.27;14.73;;;-0.20;99.90;;;;;;5067498;28;20450;-80
2023/12/20 00:03:36;;;;;;;18.63;13.70;;;-0.10;99.90;;;;;;5070707;28;20497;-80
2023/12/20 00:06:04;;;;;;;19.30;14.17;;;0.00;99.90;;;;;;5072831;28;20447;-81
2023/12/20 00:08:31;;;;;;;15.00;12.33;;;0.10;99.90;;;;;;5077198;28;20462;-81
2023/12/20 00:10:57;;;;;;;10.87;9.80;;;0.10;99.90;;;;;;5074330;28;20513;-81
2023/12/20 00:13:24;;;;;;;9.80;8.10;;;0.20;99.90;;;;;;5080696;28;20458;-81
2023/12/20 00:15:51;;;;;;;6.00;5.40;;;0.20;99.90;;;;;;5074632;28;20885;-81
2023/12/20 00:18:18;;;;;;;7.03;5.27;;;0.40;99.90;;;;;;5077738;28;20443;-81
2023/12/20 00:20:47;;;;;;;7.00;5.23;;;0.40;99.90;;;;;;5076941;28;20512;-81
2023/12/20 00:23:14;;;;;;;7.77;5.57;;;0.50;99.90;;;;;;5066123;28;20513;-81
2023/12/20 00:25:41;;;;;;;7.07;4.83;;;0.80;99.90;;;;;;5071423;28;20855;-81
2023/12/20 00:28:08;;;;;;;6.70;6.10;;;0.90;99.90;;;;;;5078299;28;20794;-81
2023/12/20 00:30:36;;;;;;;9.83;5.70;;;1.00;99.90;;;;;;5062588;28;20525;-81
2023/12/20 00:33:03;;;;;;;6.10;5.30;;;1.00;99.90;;;;;;5071418;28;20467;-81
2023/12/20 00:35:30;;;;;;;7.53;5.60;;;1.00;99.90;;;;;;5071819;28;20478;-81
2023/12/20 00:37:59;;;;;;;7.73;6.50;;;1.00;99.90;;;;;;5068127;28;20500;-81
2023/12/20 00:40:26;;;;;;;5.10;4.13;;;1.10;99.90;;;;;;5077846;28;20468;-81
2023/12/20 00:42:53;;;;;;;5.50;4.07;;;1.30;99.90;;;;;;5075790;28;20451;-81
2023/12/20 00:45:21;;;;;;;5.03;4.00;;;1.40;99.90;;;;;;5068323;28;20459;-80
2023/12/20 00:47:48;;;;;;;5.83;3.57;;;1.50;99.90;;;;;;5066698;28;20512;-80
2023/12/20 00:50:15;;;;;;;5.63;4.20;;;1.60;99.90;;;;;;5073974;28;20470;-81
2023/12/20 00:52:42;;;;;;;4.10;3.57;;;1.70;99.90;;;;;;5079129;28;20467;-81
2023/12/20 00:55:10;;;;;;;4.67;3.63;;;1.80;99.90;;;;;;5077368;28;20953;-81
2023/12/20 00:57:37;;;;;;;4.33;3.30;;;2.00;99.90;;;;;;5075931;28;20576;-81
2023/12/20 01:00:05;;;;;;;5.80;4.27;;;2.10;99.90;;;;;;5074619;28;20527;-81
2023/12/20 01:02:32;;;;;;;3.67;3.10;;;2.30;99.90;;;;;;5075303;28;20883;-81
2023/12/20 01:04:59;;;;;;;4.40;3.97;;;2.40;99.90;;;;;;5079540;28;20504;-81
2023/12/20 01:07:26;;;;;;;6.63;4.43;;;2.40;99.90;;;;;;5084381;28;20446;-81
2023/12/20 01:09:53;;;;;;;4.27;3.77;;;2.50;99.90;;;;;;5090797;28;20466;-81
2023/12/20 01:12:22;;;;;;;4.27;3.20;;;2.60;99.90;;;;;;5076561;28;20446;-81
2023/12/20 01:14:49;;;;;;;3.87;3.33;;;2.70;99.90;;;;;;5074543;28;20508;-81
2023/12/20 01:17:16;;;;;;;2.63;2.30;;;2.70;99.90;;;;;;5080627;28;20486;-81
2023/12/20 01:19:43;;;;;;;2.93;2.60;;;2.70;99.90;;;;;;5076264;28;21451;-81
2023/12/20 01:22:10;;;;;;;2.70;2.50;;;2.60;99.90;;;;;;5081116;28;20451;-81
2023/12/20 01:24:37;;;;;;;2.80;2.53;;;2.50;99.90;;;;;;5073257;28;20455;-81
2023/12/20 01:27:04;;;;;;;4.47;1.90;;;2.50;99.90;;;;;;5078374;28;20440;-81
2023/12/20 01:29:32;;;;;;;1.73;1.63;;;2.50;99.90;;;;;;5085343;28;20439;-81
2023/12/20 01:31:59;;;;;;;2.27;2.07;;;2.60;99.90;;;;;;5082747;28;20500;-81
2023/12/20 01:34:26;;;;;;;2.37;1.33;;;2.60;99.90;;;;;;5070765;28;20451;-81
2023/12/20 01:36:53;;;;;;;2.03;1.90;;;2.70;99.90;;;;;;5087004;28;20582;-81
2023/12/20 01:39:20;;;;;;;2.17;1.73;;;2.60;99.90;;;;;;5080353;28;20510;-81
2023/12/20 01:41:47;;;;;;;1.40;1.17;;;2.60;99.90;;;;;;5090484;28;20539;-81
2023/12/20 01:44:14;;;;;;;1.90;1.70;;;2.70;99.90;;;;;;5069943;28;20471;-81
2023/12/20 01:46:42;;;;;;;2.33;2.03;;;2.70;99.90;;;;;;5068398;28;20503;-81
2023/12/20 01:49:09;;;;;;;2.13;1.23;;;2.70;99.90;;;;;;5085879;28;20450;-81
2023/12/20 01:51:37;;;;;;;0.93;0.80;;;2.70;99.90;;;;;;5080194;28;20513;-81
2023/12/20 01:54:05;;;;;;;1.23;0.90;;;2.70;99.90;;;;;;5077832;28;20515;-81
2023/12/20 01:56:33;;;;;;;0.93;0.87;;;2.70;99.90;;;;;;5078509;28;21005;-81
2023/12/20 01:59:01;;;;;;;1.07;0.70;;;2.80;99.90;;;;;;5079005;28;20442;-81
2023/12/20 02:01:28;;;;;;;1.47;1.13;;;3.00;99.90;;;;;;5070255;28;20454;-81
2023/12/20 02:03:58;;;;;;;1.10;0.80;;;3.00;99.90;;;;;;5082213;28;20470;-81
2023/12/20 02:06:28;;;;;;;1.40;0.93;;;3.00;99.90;;;;;;5081929;28;20995;-81
2023/12/20 02:08:55;;;;;;;1.80;1.03;;;3.10;99.90;;;;;;5078428;28;20469;-81
2023/12/20 02:11:21;;;;;;;0.90;0.80;;;3.10;99.90;;;;;;5087624;28;20451;-82
2023/12/20 02:13:48;;;;;;;1.10;1.00;;;3.10;99.90;;;;;;5081381;28;20787;-81
2023/12/20 02:16:15;;;;;;;1.10;0.83;;;3.10;99.90;;;;;;5076345;28;20892;-81
2023/12/20 02:18:43;;;;;;;1.50;1.17;;;3.20;99.90;;;;;;5066253;28;20475;-81
2023/12/20 02:21:12;;;;;;;1.13;0.90;;;3.20;99.90;;;;;;5073872;28;20443;-81
2023/12/20 02:23:40;;;;;;;1.00;0.90;;;3.20;99.90;;;;;;5073225;28;20493;-82
2023/12/20 02:26:07;;;;;;;1.20;0.93;;;3.20;99.90;;;;;;5086696;28;20449;-81
2023/12/20 02:28:35;;;;;;;0.97;0.73;;;3.20;99.90;;;;;;5076305;28;20919;-81
2023/12/20 02:31:02;;;;;;;6.60;4.17;;;3.30;99.90;;;;;;5070322;28;20564;-81
2023/12/20 02:33:29;;;;;;;3.07;2.40;;;2.60;99.90;;;;;;5071886;28;20464;-81
2023/12/20 02:35:56;;;;;;;2.57;2.40;;;1.90;99.90;;;;;;5078704;28;20435;-81
2023/12/20 02:38:23;;;;;;;3.90;3.50;;;1.90;99.90;;;;;;5067673;28;20459;-81
2023/12/20 02:40:51;;;;;;;5.20;4.70;;;1.60;99.90;;;;;;5075885;28;20528;-81
2023/12/20 02:43:18;;;;;;;5.70;5.10;;;1.40;99.90;;;;;;5078899;28;20774;-82
2023/12/20 02:45:45;;;;;;;8.57;6.07;;;1.00;99.90;;;;;;5073759;28;20451;-81
2023/12/20 02:48:12;;;;;;;7.60;6.80;;;0.90;99.90;;;;;;5078145;28;20489;-81
2023/12/20 02:50:39;;;;;;;6.97;6.30;;;0.60;99.90;;;;;;5083496;28;20971;-81
2023/12/20 02:53:06;;;;;;;8.27;5.90;;;0.50;99.90;;;;;;5077575;28;20458;-81
2023/12/20 02:55:33;;;;;;;6.50;5.97;;;0.60;99.90;;;;;;5069897;28;20786;-81
2023/12/20 02:58:01;;;;;;;7.93;7.13;;;0.60;99.90;;;;;;5074111;28;20482;-81
2023/12/20 03:00:29;;;;;;;8.87;7.50;;;0.60;99.90;;;;;;5066438;28;20505;-81
2023/12/20 03:02:56;;;;;;;8.43;6.93;;;0.40;99.90;;;;;;5069367;28;20950;-81
2023/12/20 03:05:22;;;;;;;8.33;7.40;;;0.50;99.90;;;;;;5077040;28;20911;-81
2023/12/20 03:07:49;;;;;;;11.03;8.57;;;0.40;99.90;;;;;;5080283;28;20443;-81
2023/12/20 03:10:16;;;;;;;12.20;9.20;;;0.30;99.90;;;;;;5079182;28;20535;-81
2023/12/20 03:12:43;;;;;;;10.60;8.10;;;0.20;99.90;;;;;;5078083;28;20526;-81
2023/12/20 03:15:12;;;;;;;11.37;10.27;;;0.20;99.90;;;;;;5082921;28;20439;-81
2023/12/20 03:17:39;;;;;;;12.53;9.87;;;0.20;99.90;;;;;;5064793;28;20490;-81
2023/12/20 03:20:07;;;;;;;10.80;9.43;;;0.20;99.90;;;;;;5076887;28;20454;-82
2023/12/20 03:22:35;;;;;;;11.20;8.90;;;0.20;99.90;;;;;;5077277;28;20449;-82
2023/12/20 03:25:02;;;;;;;10.63;9.53;;;0.20;99.90;;;;;;5064209;28;20559;-82
2023/12/20 03:27:29;;;;;;;10.33;8.30;;;0.30;99.90;;;;;;5075532;28;20557;-82
2023/12/20 03:29:55;;;;;;;11.47;8.07;;;0.20;99.90;;;;;;5064549;28;20512;-82
2023/12/20 03:32:24;;;;;;;10.40;9.03;;;0.30;99.90;;;;;;5075269;28;20447;-81
2023/12/20 03:34:51;;;;;;;10.20;9.03;;;0.50;99.90;;;;;;5073733;28;20520;-81
2023/12/20 03:37:18;;;;;;;12.07;10.17;;;0.50;99.90;;;;;;5063945;28;20487;-82
2023/12/20 03:39:45;;;;;;;10.67;9.60;;;0.50;99.90;;;;;;5078890;28;20450;-82
2023/12/20 03:42:13;;;;;;;12.93;11.10;;;0.50;99.90;;;;;;5077828;28;20993;-82
2023/12/20 03:44:40;;;;;;;12.70;11.40;;;0.50;99.90;;;;;;5062127;28;20554;-82
2023/12/20 03:47:07;;;;;;;12.47;11.27;;;0.40;99.90;;;;;;5064421;28;20533;-82
2023/12/20 03:49:36;;;;;;;13.33;10.90;;;0.30;99.90;;;;;;5074160;28;20518;-82
2023/12/20 03:52:04;;;;;;;12.73;11.40;;;0.30;99.90;;;;;;5079059;28;20508;-82
2023/12/20 03:54:31;;;;;;;12.57;10.33;;;0.30;99.90;;;;;;5077007;28;20921;-82
2023/12/20 03:56:58;;;;;;;11.63;8.90;;;0.40;99.90;;;;;;5083106;28;20934;-81
2023/12/20 03:59:25;;;;;;;12.17;8.73;;;0.60;99.90;;;;;;5072466;28;20445;-82
2023/12/20 04:01:52;;;;;;;12.93;11.50;;;0.70;99.90;;;;;;5067955;28;20464;-81
2023/12/20 04:04:19;;;;;;;15.40;11.43;;;0.80;99.90;;;;;;5067562;28;20496;-82
2023/12/20 04:06:47;;;;;;;17.43;12.03;;;0.70;99.90;;;;;;5083188;28;20473;-81
2023/12/20 04:09:14;;;;;;;12.37;10.13;;;0.50;99.90;;;;;;5067229;28;20456;-81
2023/12/20 04:11:41;;;;;;;16.00;10.47;;;0.60;99.90;;;;;;5080718;28;20447;-82
2023/12/20 04:14:08;;;;;;;11.43;10.23;;;0.60;99.90;;;;;;5082355;28;20462;-82
2023/12/20 04:16:36;;;;;;;11.27;8.63;;;0.60;99.90;;;;;;5075271;28;21011;-82
2023/12/20 04:19:03;;;;;;;10.47;7.60;;;0.80;99.90;;;;;;5075072;28;20444;-81
2023/12/20 04:21:30;;;;;;;9.03;8.13;;;0.80;99.90;;;;;;5072282;28;20553;-81
2023/12/20 04:23:58;;;;;;;8.30;7.43;;;0.90;99.90;;;;;;5075971;28;20519;-81
2023/12/20 04:26:25;;;;;;;11.53;7.40;;;1.00;99.90;;;;;;5067374;28;20873;-82
2023/12/20 04:28:52;;;;;;;9.80;7.90;;;1.00;99.90;;;;;;5071877;28;20464;-82
2023/12/20 04:31:19;;;;;;;8.70;7.10;;;1.00;99.90;;;;;;5068692;28;20459;-81
2023/12/20 04:33:46;;;;;;;9.33;8.43;;;1.00;99.90;;;;;;5071326;28;20532;-82
2023/12/20 04:36:13;;;;;;;11.13;9.97;;;0.90;99.90;;;;;;5075438;28;20457;-81
2023/12/20 04:38:40;;;;;;;10.90;7.90;;;0.90;99.90;;;;;;5077427;28;20482;-81
2023/12/20 04:41:08;;;;;;;6.57;5.87;;;1.00;99.90;;;;;;5081614;28;20467;-82
2023/12/20 04:43:35;;;;;;;7.13;6.53;;;1.20;99.90;;;;;;5078421;28;20544;-82
2023/12/20 04:46:02;;;;;;;9.33;6.07;;;1.30;99.90;;;;;;5061549;28;20447;-82
2023/12/20 04:48:29;;;;;;;13.70;10.40;;;1.40;99.90;;;;;;5064445;28;20940;-82
2023/12/20 04:50:56;;;;;;;13.50;11.70;;;1.40;99.90;;;;;;5070772;28;20449;-82
2023/12/20 04:53:23;;;;;;;16.53;11.20;;;1.20;99.90;;;;;;5071985;28;20525;-82
2023/12/20 04:55:50;;;;;;;13.60;12.13;;;0.90;99.90;;;;;;5075880;28;20508;-82
2023/12/20 04:58:19;;;;;;;11.80;9.63;;;0.80;99.90;;;;;;5072257;28;20563;-81
2023/12/20 05:00:46;;;;;;;13.77;11.57;;;0.90;99.90;;;;;;5062498;28;20448;-82
2023/12/20 05:03:12;;;;;;;11.97;9.93;;;1.00;99.90;;;;;;5071600;28;20444;-81
2023/12/20 05:05:40;;;;;;;10.30;9.27;;;1.00;99.90;;;;;;5074061;28;20443;-82
2023/12/20 05:08:07;;;;;;;10.07;9.17;;;1.10;99.90;;;;;;5063654;28;20450;-81
2023/12/20 05:10:35;;;;;;;11.93;9.73;;;1.00;99.90;;;;;;5068571;28;22289;-81
2023/12/20 05:13:02;;;;;;;11.00;9.90;;;1.00;99.90;;;;;;5074226;28;20452;-81
2023/12/20 05:15:31;;;;;;;10.50;9.00;;;1.00;99.90;;;;;;5064413;28;20616;-81
2023/12/20 05:17:57;;;;;;;11.50;9.37;;;1.00;99.90;;;;;;5074739;28;21033;-81
2023/12/20 05:20:24;;;;;;;12.40;9.70;;;1.00;99.90;;;;;;5066278;28;20470;-82
2023/12/20 05:22:51;;;;;;;9.90;8.90;;;0.90;99.90;;;;;;5067445;28;20460;-81
2023/12/20 05:25:18;;;;;;;10.03;8.73;;;1.10;99.90;;;;;;5074624;28;20543;-81
2023/12/20 05:27:45;;;;;;;8.90;8.00;;;1.10;99.90;;;;;;5065984;28;20537;-81
2023/12/20 05:30:13;;;;;;;9.20;7.60;;;1.00;99.90;;;;;;5076954;28;20462;-81
2023/12/20 05:32:42;;;;;;;9.27;7.20;;;1.20;99.90;;;;;;5069199;28;20468;-82
2023/12/20 05:35:09;;;;;;;8.60;7.67;;;1.30;99.90;;;;;;5066107;28;20476;-81
2023/12/20 05:37:36;;;;;;;10.80;6.50;;;1.40;99.90;;;;;;5063598;28;20777;-81
2023/12/20 05:40:04;;;;;;;7.37;6.17;;;1.40;99.90;;;;;;5067867;28;20472;-81
2023/12/20 05:42:31;;;;;;;10.67;6.20;;;1.50;99.90;;;;;;5074493;28;20474;-81
2023/12/20 05:44:58;;;;;;;7.87;6.37;;;1.60;99.90;;;;;;5065580;28;20464;-81
2023/12/20 05:47:25;;;;;;;8.83;6.67;;;1.60;99.90;;;;;;5077197;28;20459;-81
2023/12/20 05:49:53;;;;;;;6.53;5.73;;;1.70;99.90;;;;;;5065387;28;20440;-82
2023/12/20 05:52:20;;;;;;;7.13;6.40;;;1.60;99.90;;;;;;5069022;28;20501;-81
2023/12/20 05:54:47;;;;;;;11.63;5.83;;;1.70;99.90;;;;;;5080229;28;20454;-81
2023/12/20 05:57:14;;;;;;;5.77;5.23;;;1.80;99.90;;;;;;5079306;28;20673;-81
2023/12/20 05:59:41;;;;;;;7.27;5.60;;;1.90;99.90;;;;;;5087495;28;20451;-81
2023/12/20 06:02:08;;;;;;;7.00;5.20;;;1.90;99.90;;;;;;5074015;28;20543;-82
2023/12/20 06:04:35;;;;;;;14.37;8.90;;;1.90;99.90;;;;;;5065898;28;20463;-82
2023/12/20 06:07:04;;;;;;;13.33;8.93;;;2.00;99.90;;;;;;5076996;28;20528;-82
2023/12/20 06:09:31;;;;;;;15.73;10.37;;;1.90;99.90;;;;;;5068609;28;20489;-82
2023/12/20 06:11:58;;;;;;;7.23;6.03;;;1.80;99.90;;;;;;5065632;28;20541;-83
2023/12/20 06:14:25;;;;;;;11.03;8.03;;;1.90;99.90;;;;;;5066811;28;20455;-82
2023/12/20 06:16:52;;;;;;;7.43;6.40;;;2.00;99.90;;;;;;5077525;28;20620;-82
2023/12/20 06:19:19;;;;;;;8.33;7.10;;;2.00;99.90;;;;;;5074924;28;20464;-82
2023/12/20 06:21:46;;;;;;;9.70;7.63;;;1.90;99.90;;;;;;5067547;28;20435;-82
2023/12/20 06:24:14;;;;;;;9.23;7.40;;;1.80;99.90;;;;;;5077961;28;20907;-82
2023/12/20 06:26:41;;;;;;;6.43;5.80;;;1.90;99.90;;;;;;5079781;28;20447;-82
2023/12/20 06:29:08;;;;;;;8.20;7.23;;;1.90;99.90;;;;;;5075747;28;20462;-82
2023/12/20 06:31:36;;;;;;;6.93;5.63;;;1.80;99.90;;;;;;5085979;28;20837;-82
2023/12/20 06:34:03;;;;;;;6.10;5.43;;;1.90;99.90;;;;;;5073199;28;20470;-82
2023/12/20 06:36:30;;;;;;;3.97;3.40;;;2.00;99.90;;;;;;5080311;28;20452;-82
2023/12/20 06:38:57;;;;;;;5.03;3.00;;;2.20;99.90;;;;;;5063857;28;20549;-82
2023/12/20 06:41:26;;;;;;;2.33;2.13;;;2.40;99.90;;;;;;5080401;28;21122;-82
2023/12/20 06:43:53;;;;;;;3.63;3.20;;;2.70;99.90;;;;;;5082333;28;20466;-82
2023/12/20 06:46:20;;;;;;;2.60;2.37;;;2.90;99.90;;;;;;5070333;28;20523;-82
2023/12/20 06:48:47;;;;;;;1.97;1.87;;;2.90;99.90;;;;;;5064907;28;20494;-81
2023/12/20 06:51:16;;;;;;;2.13;1.80;;;2.90;99.90;;;;;;5080568;28;21047;-82
2023/12/20 06:53:43;;;;;;;3.30;1.83;;;2.90;99.90;;;;;;5073585;28;20551;-82
2023/12/20 06:56:12;;;;;;;2.20;1.30;;;2.90;99.90;;;;;;5068888;28;20549;-81
2023/12/20 06:58:40;;;;;;;2.70;2.13;;;3.00;99.90;;;;;;5081412;28;20579;-81
2023/12/20 07:01:12;;;;;;;5.00;2.37;;;3.10;99.90;;;;;;5065872;28;20476;-81
2023/12/20 07:03:39;;;;;;;3.57;2.53;;;3.20;99.90;;;;;;5081360;28;20511;-82
2023/12/20 07:06:06;;;;;;;3.73;1.47;;;3.20;99.90;;;;;;5081474;28;20439;-82
2023/12/20 07:08:33;;;;;;;2.70;1.97;;;3.20;99.90;;;;;;5074489;28;20521;-82
2023/12/20 07:11:00;;;;;;;2.70;1.70;;;3.30;99.90;;;;;;5064509;28;20525;-83
2023/12/20 07:13:27;;;;;;;1.60;1.50;;;3.30;99.90;;;;;;5071840;28;20533;-82
2023/12/20 07:15:55;;;;;;;2.40;1.87;;;3.30;99.90;;;;;;5062460;28;20455;-82
2023/12/20 07:18:22;;;;;;;3.90;2.03;;;3.30;99.90;;;;;;5069084;28;20483;-82
2023/12/20 07:20:49;;;;;;;2.30;2.10;;;3.30;99.90;;;;;;5066489;28;20468;-83
2023/12/20 07:23:16;;;;;;;2.77;2.50;;;3.30;99.90;;;;;;5078041;28;20490;-82
2023/12/20 07:25:43;;;;;;;2.17;1.70;;;3.30;99.90;;;;;;5076038;28;20462;-82
2023/12/20 07:28:10;;;;;;;1.67;1.57;;;3.50;99.90;;;;;;5068689;28;20460;-82
2023/12/20 07:30:37;;;;;;;3.23;1.93;;;3.70;99.90;;;;;;5069114;28;20443;-82
2023/12/20 07:33:08;;;;;;;1.67;1.43;;;3.60;99.90;;;;;;5072975;28;20460;-82
2023/12/20 07:35:35;;;;;;;2.40;1.43;;;3.60;99.90;;;;;;5069200;28;20463;-82
2023/12/20 07:38:02;;;;;;;1.57;1.27;;;3.70;99.90;;;;;;5065586;28;20561;-81
2023/12/20 07:40:29;;;;;;;0.70;0.60;;;3.80;99.90;;;;;;5067559;28;21248;-82
2023/12/20 07:42:56;;;;;;;1.10;0.90;;;3.90;99.90;;;;;;5066593;28;20501;-82
2023/12/20 07:45:23;;;;;;;0.70;0.50;;;4.00;99.90;;;;;;5072355;28;20440;-82
2023/12/20 07:47:50;;;;;;;1.20;0.80;;;4.00;99.90;;;;;;5076660;28;20492;-82
2023/12/20 07:50:18;;;;;;;1.43;0.70;;;3.90;99.90;;;;;;5065860;28;20459;-82
2023/12/20 07:52:45;;;;;;;1.10;1.00;;;3.90;99.90;;;;;;5065901;28;20591;-82
2023/12/20 07:55:12;;;;;;;0.60;0.60;;;3.90;99.90;;;;;;5079201;28;20507;-82
2023/12/20 07:57:39;;;;;;;1.00;0.77;;;3.80;99.90;;;;;;5071482;28;20471;-82
2023/12/20 08:00:07;;;;;;;1.00;0.80;;;3.80;99.90;;;;;;5070512;28;20467;-82
2023/12/20 08:02:35;;;;;;;4.00;1.17;;;3.70;99.90;;;;;;5071008;28;20517;-82
2023/12/20 08:05:01;;;;;;;1.30;0.87;;;3.70;99.90;;;;;;5070213;28;20574;-83
2023/12/20 08:07:30;;;;;;;1.50;1.10;;;3.60;99.90;;;;;;5078569;28;20864;-83
2023/12/20 08:09:57;;;;;;;2.00;1.00;;;3.60;99.90;;;;;;5081041;28;20458;-83
2023/12/20 08:12:27;;;;;;;1.00;0.90;;;3.60;99.90;;;;;;5070768;28;20443;-83
2023/12/20 08:14:54;;;;;;;1.30;0.90;;;3.60;99.90;;;;;;5065377;28;20498;-83
2023/12/20 08:17:23;;;;;;;0.77;0.73;;;3.60;99.90;;;;;;5077893;28;20495;-83
2023/12/20 08:19:49;;;;;;;1.90;1.20;;;3.60;99.90;;;;;;5072297;28;20486;-83
2023/12/20 08:22:16;;;;;;;1.80;1.37;;;3.60;99.90;;;;;;5070501;28;20462;-83
2023/12/20 08:24:44;;;;;;;1.37;1.20;;;3.60;99.90;;;;;;5078867;28;20467;-83
2023/12/20 08:27:11;;;;;;;1.27;1.17;;;3.70;99.90;;;;;;5074819;28;20508;-83
2023/12/20 08:29:38;;;;;;;2.50;1.43;;;3.70;99.90;;;;;;5077544;28;20528;-83
2023/12/20 08:32:05;;;;;;;1.40;1.13;;;3.60;99.90;;;;;;5065956;28;20450;-83
2023/12/20 08:34:32;;;;;;;1.30;1.20;;;3.70;99.90;;;;;;5066156;28;20439;-83
2023/12/20 08:36:59;;;;;;;1.37;1.00;;;3.70;99.90;;;;;;5071869;28;20834;-83
2023/12/20 08:39:26;;;;;;;1.83;1.60;;;3.70;99.90;;;;;;5075327;28;20495;-81
2023/12/20 08:41:55;;;;;;;5.73;2.40;;;3.70;99.90;;;;;;5063812;28;20452;-81
2023/12/20 08:44:22;;;;;;;2.93;1.93;;;3.70;99.90;;;;;;5075718;28;20460;-82
2023/12/20 08:46:49;;;;;;;1.60;1.50;;;3.70;99.90;;;;;;5074274;28;20830;-82
2023/12/20 08:49:16;;;;;;;2.47;1.50;;;3.70;99.90;;;;;;5069372;28;20790;-81
2023/12/20 08:51:43;;;;;;;2.70;1.47;;;3.60;99.90;;;;;;5065987;28;20815;-81
2023/12/20 08:54:12;;;;;;;1.43;1.33;;;3.60;99.90;;;;;;5069137;28;20459;-81
2023/12/20 08:56:40;;;;;;;1.23;1.13;;;3.60;99.90;;;;;;5063910;28;20556;-82
2023/12/20 08:59:09;;;;;;;6.23;2.43;;;3.60;99.90;;;;;;5080082;28;20515;-82
2023/12/20 09:01:36;;;;;;;5.50;3.47;;;3.60;99.90;;;;;;5066375;28;20773;-81
2023/12/20 09:04:03;;;;;;;6.53;4.17;;;3.60;99.90;;;;;;5068363;28;20573;-81
2023/12/20 09:06:30;;;;;;;1.73;1.40;;;3.70;99.90;;;;;;5072864;28;20764;-82
2023/12/20 09:08:57;;;;;;;1.37;1.27;;;3.70;99.90;;;;;;5065787;28;20444;-81
2023/12/20 09:11:24;;;;;;;2.37;2.17;;;3.80;99.90;;;;;;5065223;28;20459;-81
2023/12/20 09:13:50;;;;;;;6.70;3.13;;;3.70;99.90;;;;;;5072921;28;20953;-81
2023/12/20 09:16:19;;;;;;;3.60;2.70;;;3.80;99.90;;;;;;5071387;28;20521;-82
2023/12/20 09:18:46;;;;;;;7.57;2.20;;;3.80;99.90;;;;;;5072437;28;20862;-81
2023/12/20 09:21:13;;;;;;;4.70;2.30;;;3.80;99.90;;;;;;5077671;28;20676;-83
2023/12/20 09:23:40;;;;;;;4.90;3.90;;;3.80;99.90;;;;;;5076221;28;20490;-83
2023/12/20 09:26:07;;;;;;;1.13;0.93;;;3.80;99.90;;;;;;5074746;28;20959;-83
2023/12/20 09:28:36;;;;;;;3.33;1.50;;;3.90;99.90;;;;;;5072918;28;20448;-83
2023/12/20 09:31:05;;;;;;;1.43;1.03;;;3.90;99.90;;;;;;5070867;28;20518;-82
2023/12/20 09:33:33;;;;;;;1.90;1.10;;;3.90;99.90;;;;;;5073290;28;20454;-83
2023/12/20 09:36:01;;;;;;;2.90;2.27;;;4.00;99.90;;;;;;5065266;28;20452;-83
2023/12/20 09:38:28;;;;;;;1.30;1.20;;;4.00;99.90;;;;;;5072059;28;20497;-83
2023/12/20 09:40:56;;;;;;;1.27;1.07;;;4.00;99.90;;;;;;5065509;28;20777;-82
2023/12/20 09:43:26;;;;;;;0.97;0.97;;;4.10;99.90;;;;;;5077801;28;20499;-83
2023/12/20 09:45:54;;;;;;;1.60;1.50;;;4.20;99.90;;;;;;5065851;28;20483;-82
2023/12/20 09:48:21;;;;;;;1.83;1.00;;;4.30;99.90;;;;;;5071796;28;20440;-82
2023/12/20 09:50:50;;;;;;;2.70;2.40;;;4.30;99.90;;;;;;5069527;28;20744;-81
2023/12/20 09:53:18;;;;;;;1.60;1.50;;;4.40;99.90;;;;;;5079612;28;20467;-82
2023/12/20 09:55:46;;;;;;;1.87;0.80;;;4.40;99.90;;;;;;5068199;28;20468;-83
2023/12/20 09:58:13;;;;;;;1.93;1.00;;;4.40;99.90;;;;;;5075438;28;20863;-82
2023/12/20 10:00:40;;;;;;;0.90;0.70;;;4.50;99.90;;;;;;5075692;28;20444;-82
2023/12/20 10:03:09;;;;;;;1.57;1.20;;;4.50;99.90;;;;;;5077458;28;20446;-83
2023/12/20 10:05:36;;;;;;;1.33;0.90;;;4.50;99.90;;;;;;5077085;28;20471;-82
2023/12/20 10:08:05;;;;;;;1.43;1.33;;;4.50;99.90;;;;;;5081908;28;20450;-83
2023/12/20 10:10:32;;;;;;;1.00;0.90;;;4.50;99.90;;;;;;5077035;28;20459;-82
2023/12/20 10:13:03;;;;;;;1.10;1.00;;;4.60;99.90;;;;;;5080622;28;20517;-82
2023/12/20 10:15:31;;;;;;;8.40;2.10;;;4.60;99.90;;;;;;5068251;28;20470;-83
2023/12/20 10:17:59;;;;;;;1.13;1.03;;;4.60;99.90;;;;;;5066290;28;20466;-83
2023/12/20 10:20:26;;;;;;;1.50;1.40;;;4.70;99.90;;;;;;5076336;28;20518;-82
2023/12/20 10:22:54;;;;;;;1.63;1.00;;;4.70;99.90;;;;;;5076553;28;20516;-82
2023/12/20 10:25:23;;;;;;;1.47;0.70;;;4.80;99.90;;;;;;5072671;28;20592;-82
2023/12/20 10:27:51;;;;;;;1.00;0.90;;;4.80;99.90;;;;;;5074838;28;20516;-83
2023/12/20 10:30:18;;;;;;;3.63;1.90;;;4.80;99.90;;;;;;5069613;28;20987;-82
2023/12/20 10:32:45;;;;;;;1.13;1.03;;;4.80;99.90;;;;;;5076819;28;20442;-82
2023/12/20 10:35:12;;;;;;;1.10;0.67;;;4.80;99.90;;;;;;5069678;28;20495;-83
2023/12/20 10:37:39;;;;;;;0.83;0.83;;;4.90;99.90;;;;;;5067791;28;20508;-82
2023/12/20 10:40:07;;;;;;;0.90;0.80;;;5.00;99.90;;;;;;5076783;28;20487;-82
2023/12/20 10:42:37;;;;;;;1.00;0.60;;;5.10;99.90;;;;;;5079309;28;20534;-82
2023/12/20 10:45:05;;;;;;;0.87;0.80;;;5.10;99.90;;;;;;5069187;28;20460;-82
2023/12/20 10:47:33;;;;;;;0.90;0.90;;;5.20;99.90;;;;;;5074482;28;20451;-83
2023/12/20 10:50:02;;;;;;;1.33;0.60;;;5.20;99.90;;;;;;5078230;28;20948;-82
2023/12/20 10:52:30;;;;;;;2.07;0.60;;;5.20;99.90;;;;;;5070387;28;20470;-82
2023/12/20 10:54:57;;;;;;;0.80;0.80;;;5.20;99.90;;;;;;5075277;28;20443;-82
2023/12/20 10:57:28;;;;;;;1.43;0.50;;;5.20;99.90;;;;;;5070589;28;20566;-83
2023/12/20 11:00:00;;;;;;;0.70;0.70;;;5.20;99.90;;;;;;5071792;28;20497;-82
2023/12/20 11:02:29;;;;;;;0.70;0.60;;;5.20;99.90;;;;;;5070039;28;20443;-82
2023/12/20 11:05:03;;;;;;;0.90;0.90;;;5.20;99.90;;;;;;5076311;28;20503;-82
2023/12/20 11:07:37;;;;;;;0.40;0.40;;;5.20;99.90;;;;;;5076449;28;20475;-82
2023/12/20 11:10:14;;;;;;;0.83;0.50;;;5.20;99.90;;;;;;5081330;28;20591;-82
2023/12/20 11:12:48;;;;;;;0.47;0.40;;;5.20;99.90;;;;;;5072427;28;21037;-82
2023/12/20 11:15:17;;;;;;;0.40;0.30;;;5.20;99.90;;;;;;5073431;28;20914;-82
2023/12/20 11:17:47;;;;;;;0.47;0.33;;;5.20;99.90;;;;;;5074678;28;20456;-82
2023/12/20 11:20:14;;;;;;;0.40;0.40;;;5.20;99.90;;;;;;5073743;28;20490;-82
2023/12/20 11:22:53;;;;;;;0.60;0.40;;;5.20;99.90;;;;;;5068151;28;20436;-82
2023/12/20 11:25:21;;;;;;;0.70;0.50;;;5.20;99.90;;;;;;5069489;28;20446;-82
2023/12/20 11:28:10;;;;;;;0.50;0.40;;;5.30;99.90;;;;;;5063541;28;20444;-82
2023/12/20 11:30:48;;;;;;;1.10;0.60;;;5.30;99.90;;;;;;5071419;28;20454;-82
2023/12/20 11:33:15;;;;;;;1.20;0.57;;;5.30;99.90;;;;;;5069983;28;20443;-82
2023/12/20 11:35:43;;;;;;;0.53;0.47;;;5.20;99.90;;;;;;5075486;28;20930;-82
2023/12/20 11:38:10;;;;;;;0.80;0.50;;;5.20;99.90;;;;;;5070254;28;20440;-83
2023/12/20 11:40:38;;;;;;;2.00;1.40;;;5.20;99.90;;;;;;5079101;28;20657;-82
2023/12/20 11:43:06;;;;;;;1.10;0.60;;;5.20;99.90;;;;;;5070004;28;20467;-83
2023/12/20 11:45:34;;;;;;;1.67;1.30;;;5.10;99.90;;;;;;5069573;28;20444;-80
2023/12/20 11:48:03;;;;;;;0.93;0.60;;;5.20;99.90;;;;;;5063572;28;21006;-80
2023/12/20 11:50:31;;;;;;;0.70;0.60;;;5.10;99.90;;;;;;5065301;28;20528;-81
2023/12/20 11:52:58;;;;;;;1.70;0.60;;;5.10;99.90;;;;;;5073305;28;20961;-80
2023/12/20 11:55:25;;;;;;;2.17;0.70;;;5.10;99.90;;;;;;5065339;28;20880;-80
2023/12/20 11:57:53;;;;;;;1.27;0.57;;;5.10;99.90;;;;;;5076043;28;20463;-81
2023/12/20 12:00:21;;;;;;;1.07;0.80;;;5.10;99.90;;;;;;5067470;28;20567;-81
2023/12/20 12:03:02;;;;;;;0.50;0.40;;;5.10;99.90;;;;;;5075644;28;20538;-81
2023/12/20 12:05:31;;;;;;;0.97;0.73;;;5.10;99.90;;;;;;5071827;28;20458;-81
2023/12/20 12:07:59;;;;;;;0.80;0.60;;;5.00;99.90;;;;;;5074363;28;20451;-81
2023/12/20 12:10:26;;;;;;;0.50;0.50;;;5.00;99.90;;;;;;5076779;28;20463;-80
2023/12/20 12:12:53;;;;;;;0.70;0.40;;;5.00;99.90;;;;;;5078180;28;20458;-81
2023/12/20 12:15:21;;;;;;;0.77;0.73;;;5.00;99.90;;;;;;5080248;28;20463;-81
2023/12/20 12:17:54;;;;;;;0.80;0.50;;;5.00;99.90;;;;;;5064742;28;20764;-81
2023/12/20 12:20:24;;;;;;;0.50;0.40;;;4.90;99.90;;;;;;5066959;28;20475;-81
2023/12/20 12:22:59;;;;;;;0.57;0.50;;;4.90;99.90;;;;;;5075706;28;20450;-82
2023/12/20 12:25:26;;;;;;;0.63;0.50;;;4.90;99.90;;;;;;5062477;28;20538;-81
2023/12/20 12:27:53;;;;;;;1.03;0.60;;;4.90;99.90;;;;;;5078683;28;20821;-81
2023/12/20 12:30:20;;;;;;;0.90;0.63;;;4.90;99.90;;;;;;5074869;28;20463;-81
2023/12/20 12:32:47;;;;;;;1.73;1.47;;;5.00;99.90;;;;;;5076135;28;20443;-81
2023/12/20 12:35:15;;;;;;;2.50;1.83;;;5.00;99.90;;;;;;5070337;28;20455;-81
2023/12/20 12:37:44;;;;;;;0.60;0.47;;;5.00;99.90;;;;;;5066273;28;20524;-81
2023/12/20 12:40:13;;;;;;;1.10;0.70;;;5.10;99.90;;;;;;5072861;28;21031;-81
2023/12/20 12:42:40;;;;;;;0.47;0.40;;;5.10;99.90;;;;;;5067019;28;20471;-81
2023/12/20 12:45:08;;;;;;;0.40;0.30;;;5.10;99.90;;;;;;5064894;28;20455;-81
2023/12/20 12:47:35;;;;;;;0.40;0.30;;;5.10;99.90;;;;;;5077285;28;20964;-82
2023/12/20 12:50:02;;;;;;;0.50;0.40;;;5.10;99.90;;;;;;5076003;28;20906;-81
2023/12/20 12:52:29;;;;;;;0.47;0.40;;;5.10;99.90;;;;;;5074364;28;20563;-81
2023/12/20 12:54:58;;;;;;;0.40;0.40;;;5.10;99.90;;;;;;5083922;27;20446;-81
2023/12/20 12:57:25;;;;;;;0.50;0.40;;;5.10;99.90;;;;;;5070122;28;20495;-81